Germanville, Iowa
Current Conditions -  °F | °C
As of 1:55 AM on Friday 24 Oct 2014 (Local Time) from KFFL Reporting Station
Overcast Overcast  
Wind Chill: 44°   Ceiling: 200
Heat Index: 46°   Visibility: NA
Dew Point: 46°   Wind: 5mph
Humidity: 100%   Direction: 240°WSW
Pressure: 30.05"   Gusts: NA
Location:  41.1253°N, 91.8296°W
Report Text: KFFL 240655Z AUTO 24004KT OVC002 08/08 A3005 RMK AO2
Loading
Personal Weather Stations






























Interactive Weather Map
Tropical Storm Tracking
New forecast layout! Learn more

10-Day Weather Forecast

Advertisements
Track Severe Weather on mobile